Time;durP1;ratioP1;P1;durP2;ratioP2;P2;SDS_P1;SDS_P2;PMS_P1;PMS_P2;Temp;Humidity;BMP_temperature;BMP_pressure;BME280_temperature;BME280_humidity;BME280_pressure;Samples;Min_cycle;Max_cycle;Signal;HPM_P1;HPM_P2
2022/05/13 00:01:40;;;;;;;;;;;;;;;20.08;35.73;101290.72;5008426;28;97643;-68
2022/05/13 00:04:08;;;;;;;;;;;;;;;20.03;35.71;101298.16;5010348;28;101250;-67
2022/05/13 00:06:34;;;;;;;;;;;;;;;19.91;36.75;101294.47;5009996;28;99200;-67
2022/05/13 00:09:00;;;;;;;;;;;;;;;19.87;37.25;101290.28;5011129;28;96833;-68
2022/05/13 00:11:27;;;;;;;;;;;;;;;19.96;36.40;101303.09;5006762;28;96810;-68
2022/05/13 00:13:53;;;;;;;;;;;;;;;19.94;36.21;101305.03;5007445;28;98905;-68
2022/05/13 00:16:19;;;;;;;;;;;;;;;19.80;36.37;101303.25;5002337;28;98654;-66
2022/05/13 00:18:45;;;;;;;;;;;;;;;19.73;36.91;101304.59;5002772;28;98752;-67
2022/05/13 00:21:13;;;;;;;;;;;;;;;19.63;36.92;101298.09;5001132;28;97696;-68
2022/05/13 00:23:39;;;;;;;;;;;;;;;19.70;36.67;101301.25;5001135;28;98305;-68
2022/05/13 00:26:05;;;;;;;;;;;;;;;19.53;37.32;101296.13;5011152;28;98915;-68
2022/05/13 00:28:32;;;;;;;;;;;;;;;19.53;37.40;101298.78;5004845;28;97203;-67
2022/05/13 00:30:59;;;;;;;;;;;;;;;19.59;37.28;101298.41;5006404;28;96804;-67
2022/05/13 00:33:26;;;;;;;;;;;;;;;19.58;37.25;101296.66;5001793;28;98921;-67
2022/05/13 00:35:52;;;;;;;;;;;;;;;19.47;37.07;101300.91;5002952;28;98435;-72
2022/05/13 00:38:20;;;;;;;;;;;;;;;19.62;37.05;101288.34;5007979;28;96973;-71
2022/05/13 00:40:47;;;;;;;;;;;;;;;19.47;37.76;101295.56;5002239;28;97088;-72
2022/05/13 00:43:14;;;;;;;;;;;;;;;19.52;37.74;101303.28;5004628;28;99269;-72
2022/05/13 00:45:41;;;;;;;;;;;;;;;19.49;37.94;101293.63;5008425;28;97671;-72
2022/05/13 00:48:08;;;;;;;;;;;;;;;19.35;37.72;101290.94;5005215;28;97707;-71
2022/05/13 00:50:36;;;;;;;;;;;;;;;19.47;37.77;101298.22;5006435;28;97508;-71
2022/05/13 00:53:03;;;;;;;;;;;;;;;19.32;38.26;101295.63;5002714;28;98683;-71
2022/05/13 00:55:34;;;;;;;;;;;;;;;19.38;37.88;101292.56;4998937;28;99023;-71
2022/05/13 00:58:00;;;;;;;;;;;;;;;19.24;38.02;101288.06;5003261;28;97618;-70
2022/05/13 01:00:27;;;;;;;;;;;;;;;19.26;38.77;101279.94;4999773;28;96743;-71
2022/05/13 01:02:53;;;;;;;;;;;;;;;19.29;38.42;101282.44;5006482;28;99067;-72
2022/05/13 01:05:22;;;;;;;;;;;;;;;19.05;38.97;101280.31;5002488;28;104694;-70
2022/05/13 01:07:50;;;;;;;;;;;;;;;19.19;38.74;101279.47;5008466;28;99175;-71
2022/05/13 01:10:18;;;;;;;;;;;;;;;19.21;38.49;101277.56;5007074;28;96829;-73
2022/05/13 01:12:50;;;;;;;;;;;;;;;19.01;39.25;101280.63;4996058;28;98984;-72
2022/05/13 01:15:19;;;;;;;;;;;;;;;19.16;38.91;101278.81;5008383;28;99420;-72
2022/05/13 01:20:27;;;;;;;;;;;;;;;19.14;38.99;101281.56;5001452;28;97129;-72
2022/05/13 01:22:56;;;;;;;;;;;;;;;19.11;39.06;101287.09;5002144;28;101646;-71
2022/05/13 01:25:24;;;;;;;;;;;;;;;19.18;39.92;101279.53;5008022;28;99112;-72
2022/05/13 01:27:50;;;;;;;;;;;;;;;19.32;39.47;101279.53;5007389;28;97753;-71
2022/05/13 01:30:20;;;;;;;;;;;;;;;19.43;38.76;101293.97;5001200;28;96818;-71
2022/05/13 01:32:47;;;;;;;;;;;;;;;19.03;39.52;101290.25;5002067;28;101895;-72
2022/05/13 01:35:13;;;;;;;;;;;;;;;19.15;39.40;101288.66;5001240;28;99364;-71
2022/05/13 01:37:40;;;;;;;;;;;;;;;19.10;40.37;101280.03;5010639;28;96786;-72
2022/05/13 01:40:08;;;;;;;;;;;;;;;18.81;41.44;101284.53;5006380;28;97739;-71
2022/05/13 01:42:35;;;;;;;;;;;;;;;18.75;40.49;101281.34;5000721;28;99257;-72
2022/05/13 01:45:01;;;;;;;;;;;;;;;18.80;40.76;101288.16;5008884;28;99102;-73
2022/05/13 01:47:28;;;;;;;;;;;;;;;18.36;40.64;101296.16;5004743;28;96784;-73
2022/05/13 01:49:54;;;;;;;;;;;;;;;18.56;40.95;101284.28;4998879;28;97001;-72
2022/05/13 01:52:21;;;;;;;;;;;;;;;18.63;40.64;101286.50;5001602;28;99190;-72
2022/05/13 01:54:47;;;;;;;;;;;;;;;18.50;40.84;101288.16;4998460;28;98751;-72
2022/05/13 01:57:15;;;;;;;;;;;;;;;18.79;40.73;101280.19;5002147;28;97240;-72
2022/05/13 01:59:41;;;;;;;;;;;;;;;18.73;40.78;101278.75;4998366;28;96846;-72
2022/05/13 02:02:08;;;;;;;;;;;;;;;18.75;41.39;101276.00;5000485;28;98456;-72
2022/05/13 02:04:34;;;;;;;;;;;;;;;18.51;42.90;101271.13;5004843;28;101873;-71
2022/05/13 02:07:00;;;;;;;;;;;;;;;18.30;43.63;101272.44;5008098;28;96870;-72
2022/05/13 02:09:27;;;;;;;;;;;;;;;18.35;43.46;101275.69;5002139;28;96822;-72
2022/05/13 02:11:54;;;;;;;;;;;;;;;18.31;44.01;101275.00;5002384;28;98920;-73
2022/05/13 02:14:22;;;;;;;;;;;;;;;18.16;44.35;101275.06;5003300;28;97676;-72
2022/05/13 02:16:48;;;;;;;;;;;;;;;18.35;43.27;101267.66;5003379;28;99367;-72
2022/05/13 02:19:15;;;;;;;;;;;;;;;18.41;44.06;101267.31;5001115;28;97219;-71
2022/05/13 02:21:41;;;;;;;;;;;;;;;18.16;43.68;101264.34;5010970;28;99048;-72
2022/05/13 02:24:08;;;;;;;;;;;;;;;18.22;43.45;101267.53;5005432;28;101140;-71
2022/05/13 02:26:34;;;;;;;;;;;;;;;18.14;44.69;101261.78;5009214;28;96876;-72
2022/05/13 02:29:01;;;;;;;;;;;;;;;17.95;45.05;101260.25;5005500;28;96877;-72
2022/05/13 02:31:30;;;;;;;;;;;;;;;18.07;45.03;101263.06;5010369;28;98616;-70
2022/05/13 02:33:56;;;;;;;;;;;;;;;17.99;45.51;101253.75;5003985;28;98743;-71
2022/05/13 02:36:23;;;;;;;;;;;;;;;17.65;45.97;101258.41;5011345;28;97499;-72
2022/05/13 02:38:49;;;;;;;;;;;;;;;17.61;46.21;101267.53;5003250;28;96983;-71
2022/05/13 02:41:15;;;;;;;;;;;;;;;17.34;46.97;101261.00;5008806;28;97587;-71
2022/05/13 02:43:43;;;;;;;;;;;;;;;17.40;47.28;101258.00;5007530;28;98825;-71
2022/05/13 02:46:10;;;;;;;;;;;;;;;17.24;47.53;101258.00;5008733;28;99151;-72
2022/05/13 02:48:38;;;;;;;;;;;;;;;17.22;47.85;101259.03;5011643;28;98521;-71
2022/05/13 02:51:05;;;;;;;;;;;;;;;17.05;48.28;101268.84;5011115;28;99143;-71
2022/05/13 02:53:31;;;;;;;;;;;;;;;17.19;47.50;101267.22;5007410;28;99200;-72
2022/05/13 02:55:57;;;;;;;;;;;;;;;17.22;47.56;101261.69;5006980;28;96900;-72
2022/05/13 02:58:23;;;;;;;;;;;;;;;17.38;47.26;101266.13;5001475;28;96881;-72
2022/05/13 03:00:50;;;;;;;;;;;;;;;17.40;46.79;101260.66;5009831;28;99990;-73
2022/05/13 03:03:16;;;;;;;;;;;;;;;17.39;46.89;101256.31;5009266;28;99095;-73
2022/05/13 03:05:44;;;;;;;;;;;;;;;17.34;46.95;101258.34;5005736;28;96779;-72
2022/05/13 03:08:10;;;;;;;;;;;;;;;17.33;46.56;101252.13;5007004;28;98637;-73
2022/05/13 03:10:38;;;;;;;;;;;;;;;17.37;46.15;101252.84;5005503;28;98148;-73
2022/05/13 03:13:05;;;;;;;;;;;;;;;17.37;45.60;101252.84;5005829;28;98916;-72
2022/05/13 03:15:32;;;;;;;;;;;;;;;17.35;45.57;101255.59;5006952;28;97862;-72
2022/05/13 03:17:59;;;;;;;;;;;;;;;17.25;45.74;101256.19;5006450;28;97069;-72
2022/05/13 03:20:26;;;;;;;;;;;;;;;17.42;45.59;101250.78;5002976;28;99170;-73
2022/05/13 03:22:53;;;;;;;;;;;;;;;17.45;45.67;101253.28;5004893;28;98802;-72
2022/05/13 03:25:21;;;;;;;;;;;;;;;17.49;45.79;101257.50;5001672;28;96786;-73
2022/05/13 03:27:47;;;;;;;;;;;;;;;17.35;46.34;101257.41;5010470;28;96795;-72
2022/05/13 03:30:15;;;;;;;;;;;;;;;17.38;46.33;101259.91;5005707;28;99107;-72
2022/05/13 03:32:41;;;;;;;;;;;;;;;17.54;46.49;101261.63;5005741;28;97634;-71
2022/05/13 03:35:10;;;;;;;;;;;;;;;17.47;46.46;101264.72;5011127;28;97068;-71
2022/05/13 03:37:36;;;;;;;;;;;;;;;17.43;45.92;101257.84;5007844;28;96988;-72
2022/05/13 03:40:05;;;;;;;;;;;;;;;17.64;45.43;101256.69;5007324;28;101834;-72
2022/05/13 03:42:31;;;;;;;;;;;;;;;17.44;46.34;101249.75;5006967;28;99738;-73
2022/05/13 03:44:57;;;;;;;;;;;;;;;17.45;46.36;101256.81;5009626;28;96863;-72
2022/05/13 03:47:24;;;;;;;;;;;;;;;17.35;47.39;101260.06;5007322;28;97516;-73
2022/05/13 03:49:50;;;;;;;;;;;;;;;17.46;46.90;101252.31;4999651;28;100403;-73
2022/05/13 03:52:16;;;;;;;;;;;;;;;17.35;47.31;101252.06;5008364;28;97795;-73
2022/05/13 03:54:43;;;;;;;;;;;;;;;17.20;48.11;101248.41;5011171;28;96941;-71
2022/05/13 03:57:10;;;;;;;;;;;;;;;17.19;47.97;101253.88;5006173;28;97220;-71
2022/05/13 03:59:37;;;;;;;;;;;;;;;17.37;47.31;101242.16;5003679;28;99300;-71
2022/05/13 04:02:04;;;;;;;;;;;;;;;17.77;46.42;101244.34;5002412;28;99129;-72
2022/05/13 04:08:56;;;;;;;;;;;;;;;17.62;46.40;101252.34;5005297;28;97174;-73
2022/05/13 04:10:02;;;;;;;;;;;;;;;17.64;46.57;101253.13;5002354;28;97557;-72
2022/05/13 04:18:06;;;;;;;;;;;;;;;18.11;45.03;101245.06;4983592;28;99492;-72
2022/05/13 04:20:34;;;;;;;;;;;;;;;17.91;45.33;101249.75;5010577;28;98963;-72
2022/05/13 04:23:00;;;;;;;;;;;;;;;18.35;44.37;101248.06;5005018;28;101552;-71
2022/05/13 04:25:26;;;;;;;;;;;;;;;18.31;44.03;101242.06;5009480;28;96808;-72
2022/05/13 04:27:54;;;;;;;;;;;;;;;18.60;43.58;101248.34;5004315;28;96845;-71
2022/05/13 04:30:20;;;;;;;;;;;;;;;18.38;44.15;101246.06;5008155;28;98961;-72
2022/05/13 04:32:47;;;;;;;;;;;;;;;18.58;43.89;101240.41;4997218;28;97873;-72
2022/05/13 04:35:13;;;;;;;;;;;;;;;18.51;43.77;101233.66;5006133;28;98395;-71
2022/05/13 04:37:40;;;;;;;;;;;;;;;18.62;43.60;101241.97;5004254;28;96977;-72
2022/05/13 04:40:07;;;;;;;;;;;;;;;18.76;43.34;101235.75;5003456;28;98239;-71
2022/05/13 04:45:24;;;;;;;;;;;;;;;18.98;42.80;101235.25;4999722;28;98597;-71
2022/05/13 04:50:35;;;;;;;;;;;;;;;19.00;43.54;101241.41;4998805;28;97827;-72
2022/05/13 04:53:02;;;;;;;;;;;;;;;19.17;42.94;101238.50;5006198;28;98916;-71
2022/05/13 04:55:28;;;;;;;;;;;;;;;19.14;42.61;101237.84;5001026;28;96817;-71
2022/05/13 04:57:55;;;;;;;;;;;;;;;19.31;42.38;101241.16;5007484;28;97405;-71
2022/05/13 05:00:22;;;;;;;;;;;;;;;19.30;42.77;101241.25;5000022;28;98804;-72
2022/05/13 05:02:49;;;;;;;;;;;;;;;19.50;41.82;101243.56;5000721;28;101074;-69
2022/05/13 05:05:16;;;;;;;;;;;;;;;19.78;40.75;101247.97;5000139;28;98813;-71
2022/05/13 05:07:42;;;;;;;;;;;;;;;19.70;40.82;101252.97;5005490;28;96967;-71
2022/05/13 05:10:10;;;;;;;;;;;;;;;19.56;41.20;101245.84;5003775;28;97874;-66
2022/05/13 05:12:37;;;;;;;;;;;;;;;20.20;39.75;101249.63;4998011;28;98910;-67
2022/05/13 05:15:03;;;;;;;;;;;;;;;20.11;40.17;101251.09;5004908;28;97136;-67
2022/05/13 05:17:30;;;;;;;;;;;;;;;20.31;39.04;101247.06;4998318;28;98729;-67
2022/05/13 05:19:57;;;;;;;;;;;;;;;20.58;38.10;101247.03;4996892;28;99152;-66
2022/05/13 05:22:31;;;;;;;;;;;;;;;20.35;38.43;101245.91;4990717;28;98885;-66
2022/05/13 05:24:57;;;;;;;;;;;;;;;20.54;38.35;101240.19;5001807;28;98764;-66
2022/05/13 05:27:23;;;;;;;;;;;;;;;20.47;38.41;101244.25;4996917;28;97612;-66
2022/05/13 05:29:50;;;;;;;;;;;;;;;20.61;38.43;101247.66;5003778;28;99296;-69
2022/05/13 05:32:19;;;;;;;;;;;;;;;20.82;38.07;101242.63;5004795;28;101559;-68
2022/05/13 05:34:47;;;;;;;;;;;;;;;20.80;37.45;101241.91;5011240;28;96794;-67
2022/05/13 05:37:13;;;;;;;;;;;;;;;20.81;37.60;101237.38;5005766;28;97017;-66
2022/05/13 05:39:40;;;;;;;;;;;;;;;20.79;36.72;101232.13;5004490;28;98922;-71
2022/05/13 05:42:08;;;;;;;;;;;;;;;20.99;36.56;101230.72;4997655;28;98859;-72
2022/05/13 05:44:34;;;;;;;;;;;;;;;21.20;36.49;101233.72;5010088;28;96739;-72
2022/05/13 05:47:00;;;;;;;;;;;;;;;20.91;36.78;101236.63;5001371;28;96869;-67
2022/05/13 05:49:27;;;;;;;;;;;;;;;21.04;36.56;101237.47;5004846;28;97891;-68
2022/05/13 05:51:55;;;;;;;;;;;;;;;21.08;36.40;101230.03;4997191;28;98778;-67
2022/05/13 05:57:15;;;;;;;;;;;;;;;21.57;35.39;101224.69;5003900;28;96751;-72
2022/05/13 05:59:42;;;;;;;;;;;;;;;21.57;35.16;101223.81;4998220;28;98691;-71
2022/05/13 06:02:08;;;;;;;;;;;;;;;21.90;34.26;101224.00;5000762;28;99365;-72
2022/05/13 06:04:35;;;;;;;;;;;;;;;22.16;34.33;101219.38;5009258;28;96798;-74
2022/05/13 06:07:03;;;;;;;;;;;;;;;22.34;33.92;101230.56;5001729;28;96897;-72
2022/05/13 06:09:30;;;;;;;;;;;;;;;22.21;33.76;101225.25;5008281;28;99227;-71
2022/05/13 06:11:56;;;;;;;;;;;;;;;22.74;33.03;101217.56;5004136;28;98975;-71
2022/05/13 06:14:23;;;;;;;;;;;;;;;23.12;32.40;101226.16;5007625;28;96801;-73
2022/05/13 06:16:49;;;;;;;;;;;;;;;23.27;31.86;101224.06;5004077;28;96907;-73
2022/05/13 06:19:16;;;;;;;;;;;;;;;22.78;32.71;101221.72;5009285;28;98925;-72
2022/05/13 06:21:42;;;;;;;;;;;;;;;22.76;32.58;101226.41;4999280;28;98853;-70
2022/05/13 06:24:10;;;;;;;;;;;;;;;22.68;32.31;101226.97;5003254;28;97252;-71
2022/05/13 06:26:37;;;;;;;;;;;;;;;22.75;32.41;101239.00;5006992;28;98868;-72
2022/05/13 06:29:05;;;;;;;;;;;;;;;22.23;33.34;101232.25;5002042;28;99137;-70
2022/05/13 06:31:32;;;;;;;;;;;;;;;22.45;32.92;101231.44;4997859;28;98684;-73
2022/05/13 06:33:59;;;;;;;;;;;;;;;22.69;32.91;101243.97;5003715;28;97076;-74
2022/05/13 06:36:26;;;;;;;;;;;;;;;22.20;33.65;101237.84;5001792;28;97060;-72
2022/05/13 06:38:52;;;;;;;;;;;;;;;22.06;33.95;101240.72;5005820;28;99016;-72
2022/05/13 06:41:20;;;;;;;;;;;;;;;21.40;35.00;101241.19;5002635;28;98131;-66
2022/05/13 06:43:46;;;;;;;;;;;;;;;22.20;33.66;101231.59;5002412;28;96793;-69
2022/05/13 06:46:12;;;;;;;;;;;;;;;23.08;32.77;101227.38;5006643;28;96879;-64
2022/05/13 06:48:39;;;;;;;;;;;;;;;22.71;33.08;101229.41;5003036;28;102126;-67
2022/05/13 06:51:05;;;;;;;;;;;;;;;22.40;33.30;101232.78;5007925;28;98471;-66
2022/05/13 06:53:31;;;;;;;;;;;;;;;23.04;32.68;101236.69;5004695;28;96914;-67
2022/05/13 06:55:58;;;;;;;;;;;;;;;23.62;31.43;101240.97;5004328;28;96782;-68
2022/05/13 06:58:27;;;;;;;;;;;;;;;23.37;31.80;101228.56;4998215;28;102028;-68
2022/05/13 07:00:53;;;;;;;;;;;;;;;23.42;31.63;101226.38;5003942;28;99243;-67
2022/05/13 07:03:22;;;;;;;;;;;;;;;22.90;31.91;101224.34;5005342;28;96751;-71
2022/05/13 07:05:50;;;;;;;;;;;;;;;22.70;32.34;101222.31;5007081;28;96807;-71
2022/05/13 07:08:17;;;;;;;;;;;;;;;23.29;31.62;101224.81;5002222;28;98258;-71
2022/05/13 07:10:45;;;;;;;;;;;;;;;22.84;32.12;101226.66;5006676;28;98751;-72
2022/05/13 07:13:13;;;;;;;;;;;;;;;21.60;33.92;101221.75;5002771;28;97022;-72
2022/05/13 07:15:41;;;;;;;;;;;;;;;22.74;32.60;101228.34;5009611;28;97019;-71
2022/05/13 07:18:07;;;;;;;;;;;;;;;22.96;32.43;101217.59;5005272;28;98890;-71
2022/05/13 07:20:33;;;;;;;;;;;;;;;23.07;31.93;101233.75;5011893;28;99570;-70
2022/05/13 07:23:00;;;;;;;;;;;;;;;23.35;31.91;101235.94;5002209;28;96853;-71
2022/05/13 07:25:27;;;;;;;;;;;;;;;23.15;32.35;101233.16;5011927;28;96866;-72
2022/05/13 07:27:53;;;;;;;;;;;;;;;22.52;33.47;101237.19;5002701;28;99999;-71
2022/05/13 07:30:19;;;;;;;;;;;;;;;22.16;34.19;101235.53;5011056;28;99431;-72
2022/05/13 07:32:47;;;;;;;;;;;;;;;22.99;32.68;101236.19;5009410;28;96904;-72
2022/05/13 07:35:13;;;;;;;;;;;;;;;22.43;32.95;101236.09;5011988;28;98878;-72
2022/05/13 07:37:39;;;;;;;;;;;;;;;22.14;33.61;101237.47;5008656;28;99236;-72
2022/05/13 07:42:50;;;;;;;;;;;;;;;22.12;33.59;101248.34;5001190;28;97322;-73
2022/05/13 07:45:16;;;;;;;;;;;;;;;22.20;33.42;101245.94;5006093;28;96867;-70
2022/05/13 07:47:43;;;;;;;;;;;;;;;21.62;34.39;101252.09;5010284;28;98856;-71
2022/05/13 07:50:11;;;;;;;;;;;;;;;21.16;35.14;101262.63;5010081;28;97731;-71
2022/05/13 07:52:39;;;;;;;;;;;;;;;22.32;33.51;101257.59;5006538;28;96753;-71
2022/05/13 07:55:05;;;;;;;;;;;;;;;22.19;33.78;101267.56;5006070;28;96813;-70
2022/05/13 07:57:32;;;;;;;;;;;;;;;21.97;34.18;101262.09;5014594;28;99403;-70
2022/05/13 08:02:43;;;;;;;;;;;;;;;22.77;33.07;101260.44;4999710;28;99178;-71
2022/05/13 08:05:10;;;;;;;;;;;;;;;22.47;33.46;101259.13;5006091;28;96817;-72
2022/05/13 08:07:37;;;;;;;;;;;;;;;21.56;34.93;101266.00;5018569;28;99000;-72
2022/05/13 08:10:03;;;;;;;;;;;;;;;22.13;34.38;101268.03;5011401;28;98974;-70
2022/05/13 08:12:29;;;;;;;;;;;;;;;21.78;35.44;101265.28;5012861;28;97106;-71
2022/05/13 08:14:56;;;;;;;;;;;;;;;21.28;35.74;101263.56;5014271;28;97517;-71
2022/05/13 08:17:22;;;;;;;;;;;;;;;22.01;34.87;101260.88;5013270;28;100863;-71
2022/05/13 08:19:48;;;;;;;;;;;;;;;21.77;35.35;101245.59;5010546;28;98752;-72
2022/05/13 08:22:16;;;;;;;;;;;;;;;22.13;34.65;101239.28;5012885;28;96773;-71
2022/05/13 08:24:42;;;;;;;;;;;;;;;21.70;35.49;101248.84;4999338;28;96926;-71
2022/05/13 08:27:08;;;;;;;;;;;;;;;20.83;37.13;101257.78;5007224;28;97463;-72
2022/05/13 08:29:34;;;;;;;;;;;;;;;20.76;37.41;101258.31;5005689;28;101731;-71
2022/05/13 08:32:01;;;;;;;;;;;;;;;20.93;37.53;101260.69;5006156;28;97758;-70
2022/05/13 08:34:27;;;;;;;;;;;;;;;21.29;36.58;101265.28;5008155;28;96867;-71
2022/05/13 08:36:53;;;;;;;;;;;;;;;21.53;36.55;101263.50;5004573;28;99222;-71
2022/05/13 08:39:21;;;;;;;;;;;;;;;21.13;37.54;101270.91;5002378;28;97765;-70
2022/05/13 08:41:55;;;;;;;;;;;;;;;20.97;38.09;101271.13;5000808;28;98430;-71
2022/05/13 08:44:21;;;;;;;;;;;;;;;20.79;38.26;101269.72;5005482;28;97123;-66
2022/05/13 08:47:03;;;;;;;;;;;;;;;21.23;37.88;101266.59;4996006;28;99232;-66
2022/05/13 08:49:33;;;;;;;;;;;;;;;21.65;37.44;101276.09;5001445;28;98409;-66
2022/05/13 08:53:06;;;;;;;;;;;;;;;20.08;40.08;101280.84;5002754;28;97160;-66
2022/05/13 08:54:59;;;;;;;;;;;;;;;21.42;37.73;101264.31;5004202;28;96916;-66
2022/05/13 08:57:27;;;;;;;;;;;;;;;22.03;36.17;101256.25;5005356;28;101632;-65
2022/05/13 08:59:56;;;;;;;;;;;;;;;22.49;34.72;101270.63;5004360;28;98688;-65
2022/05/13 09:02:24;;;;;;;;;;;;;;;22.63;33.67;101266.88;4999784;28;97043;-66
2022/05/13 09:04:56;;;;;;;;;;;;;;;22.27;33.86;101259.78;5008410;28;97141;-67
2022/05/13 09:07:23;;;;;;;;;;;;;;;21.73;34.69;101262.91;5014768;28;98065;-72
2022/05/13 09:09:51;;;;;;;;;;;;;;;22.63;33.95;101261.50;5015296;28;98112;-70
2022/05/13 09:12:23;;;;;;;;;;;;;;;22.64;33.29;101265.91;5007969;28;97884;-70
2022/05/13 09:14:52;;;;;;;;;;;;;;;23.19;31.94;101253.47;5013482;28;96820;-71
2022/05/13 09:17:36;;;;;;;;;;;;;;;23.61;31.65;101255.44;5017770;28;100330;-71
2022/05/13 09:20:06;;;;;;;;;;;;;;;23.23;31.85;101261.22;5006961;28;98900;-70
2022/05/13 09:22:33;;;;;;;;;;;;;;;22.76;32.59;101256.03;5002599;28;97149;-70
2022/05/13 09:24:59;;;;;;;;;;;;;;;23.09;31.77;101245.28;5005199;28;97448;-71
2022/05/13 09:27:27;;;;;;;;;;;;;;;23.50;31.39;101247.34;5000513;28;100914;-67
2022/05/13 09:29:53;;;;;;;;;;;;;;;23.57;30.11;101247.69;5001566;28;98835;-66
2022/05/13 09:32:24;;;;;;;;;;;;;;;23.23;31.11;101241.47;4996014;28;96840;-66
2022/05/13 09:34:55;;;;;;;;;;;;;;;22.79;30.79;101242.31;5001931;28;96824;-67
2022/05/13 09:37:23;;;;;;;;;;;;;;;22.88;30.19;101249.69;5000020;28;99353;-66
2022/05/13 09:39:51;;;;;;;;;;;;;;;23.25;30.15;101237.66;5003011;28;98965;-66
2022/05/13 09:42:18;;;;;;;;;;;;;;;23.15;29.88;101234.00;4999593;28;97589;-67
2022/05/13 09:44:46;;;;;;;;;;;;;;;22.93;30.00;101234.84;5003779;28;96954;-67
2022/05/13 09:47:14;;;;;;;;;;;;;;;23.33;30.15;101245.13;5002677;28;98876;-67
2022/05/13 09:49:41;;;;;;;;;;;;;;;23.60;29.64;101247.47;5004215;28;98979;-66
2022/05/13 09:52:09;;;;;;;;;;;;;;;23.42;30.01;101234.47;5000669;28;96850;-66
2022/05/13 09:54:37;;;;;;;;;;;;;;;23.35;30.34;101232.41;5003229;28;96828;-67
2022/05/13 09:57:06;;;;;;;;;;;;;;;23.66;30.04;101231.63;5003240;28;98868;-66
2022/05/13 09:59:35;;;;;;;;;;;;;;;24.19;29.02;101219.06;4998017;28;99276;-66
2022/05/13 10:02:14;;;;;;;;;;;;;;;24.05;29.21;101226.56;4997251;28;97188;-67
2022/05/13 10:04:40;;;;;;;;;;;;;;;24.09;29.64;101218.09;4998065;28;96843;-66
2022/05/13 10:07:08;;;;;;;;;;;;;;;23.87;29.73;101226.28;5001772;28;98787;-71
2022/05/13 10:15:18;;;;;;;;;;;;;;;24.43;29.10;101208.00;5003351;28;96767;-71
2022/05/13 10:17:48;;;;;;;;;;;;;;;24.73;28.89;101215.31;4999545;28;97842;-72
2022/05/13 10:20:21;;;;;;;;;;;;;;;24.11;29.02;101216.13;5000699;28;98755;-71
2022/05/13 10:22:50;;;;;;;;;;;;;;;24.14;29.33;101209.63;4999937;28;96817;-72
2022/05/13 10:25:20;;;;;;;;;;;;;;;23.91;29.73;101207.97;5004515;28;96834;-71
2022/05/13 10:27:50;;;;;;;;;;;;;;;23.52;29.86;101206.75;5000789;28;99077;-72
2022/05/13 10:30:19;;;;;;;;;;;;;;;22.84;31.10;101205.09;5006021;28;101879;-70
2022/05/13 10:32:52;;;;;;;;;;;;;;;21.51;33.31;101216.22;4996772;28;97142;-72
2022/05/13 10:35:20;;;;;;;;;;;;;;;21.58;33.31;101210.28;5007472;28;96847;-73
2022/05/13 10:37:54;;;;;;;;;;;;;;;21.71;33.51;101213.78;4999904;28;99205;-71
2022/05/13 10:40:21;;;;;;;;;;;;;;;21.23;34.66;101218.22;5001158;28;101353;-71
2022/05/13 10:42:52;;;;;;;;;;;;;;;21.58;34.41;101212.97;5002667;28;96903;-71
2022/05/13 10:45:20;;;;;;;;;;;;;;;21.70;34.10;101217.44;5009650;28;96783;-71
2022/05/13 10:47:50;;;;;;;;;;;;;;;21.50;34.39;101217.19;5006458;28;99344;-71
2022/05/13 10:50:20;;;;;;;;;;;;;;;21.86;33.60;101211.75;5010728;28;97767;-71
2022/05/13 10:52:52;;;;;;;;;;;;;;;22.09;32.67;101210.03;5000868;28;97363;-71
2022/05/13 10:55:24;;;;;;;;;;;;;;;22.75;31.65;101219.28;5006612;28;96935;-70
2022/05/13 10:57:56;;;;;;;;;;;;;;;22.86;31.00;101219.28;5000618;28;98946;-71
2022/05/13 11:00:27;;;;;;;;;;;;;;;22.94;31.07;101215.00;5009902;28;97147;-67
2022/05/13 11:03:16;;;;;;;;;;;;;;;23.55;29.65;101217.31;5002544;28;96895;-66
2022/05/13 11:05:48;;;;;;;;;;;;;;;23.44;30.19;101213.59;5008576;28;96856;-67
2022/05/13 11:08:17;;;;;;;;;;;;;;;23.45;29.67;101209.06;5010106;28;99587;-67
2022/05/13 11:10:49;;;;;;;;;;;;;;;22.94;29.06;101192.59;5000204;28;98727;-67
2022/05/13 11:13:19;;;;;;;;;;;;;;;22.79;28.78;101218.06;5005807;28;97402;-69
2022/05/13 11:15:50;;;;;;;;;;;;;;;22.40;28.54;101214.78;4999362;28;97618;-72
2022/05/13 11:18:25;;;;;;;;;;;;;;;22.49;28.19;101211.38;5006710;28;101409;-72
2022/05/13 11:20:56;;;;;;;;;;;;;;;22.74;28.11;101210.34;4996100;28;98921;-72
2022/05/13 11:23:30;;;;;;;;;;;;;;;23.37;27.32;101207.00;5008781;28;96745;-70
2022/05/13 11:26:04;;;;;;;;;;;;;;;22.71;27.64;101205.16;5010440;28;97852;-71
2022/05/13 11:28:46;;;;;;;;;;;;;;;22.46;27.47;101206.22;5000019;28;98510;-71
2022/05/13 11:31:20;;;;;;;;;;;;;;;22.67;27.47;101196.47;5004312;28;99766;-71
2022/05/13 11:33:52;;;;;;;;;;;;;;;23.02;26.87;101206.31;5008024;28;96866;-71
2022/05/13 11:36:29;;;;;;;;;;;;;;;22.78;27.42;101227.13;5010609;28;97199;-72
2022/05/13 11:39:05;;;;;;;;;;;;;;;22.53;28.17;101212.00;4989199;28;98840;-71
2022/05/13 11:41:37;;;;;;;;;;;;;;;22.55;27.90;101215.44;5009731;28;97577;-73
2022/05/13 11:44:06;;;;;;;;;;;;;;;22.62;28.19;101214.84;5010414;28;96709;-72
2022/05/13 11:46:49;;;;;;;;;;;;;;;22.12;28.39;101220.59;5008051;28;96992;-74
2022/05/13 11:49:21;;;;;;;;;;;;;;;22.79;27.97;101229.69;5008549;28;99106;-71
2022/05/13 11:51:48;;;;;;;;;;;;;;;22.22;27.93;101230.53;5003096;28;101758;-72
2022/05/13 11:54:20;;;;;;;;;;;;;;;22.04;28.44;101220.31;5009389;28;97813;-71
2022/05/13 11:56:47;;;;;;;;;;;;;;;22.80;28.02;101227.84;5007248;28;97624;-71
2022/05/13 11:59:28;;;;;;;;;;;;;;;22.85;27.52;101236.44;5005630;28;102122;-73
2022/05/13 12:01:57;;;;;;;;;;;;;;;22.66;27.82;101232.47;5001453;28;98782;-72
2022/05/13 12:04:27;;;;;;;;;;;;;;;21.99;28.29;101234.09;5004052;28;96992;-72
2022/05/13 12:06:55;;;;;;;;;;;;;;;21.88;29.17;101237.56;5000519;28;96820;-72
2022/05/13 12:09:24;;;;;;;;;;;;;;;22.35;28.65;101229.59;5004931;28;99701;-71
2022/05/13 12:11:53;;;;;;;;;;;;;;;23.05;27.47;101230.31;5005815;28;97325;-72
2022/05/13 12:14:22;;;;;;;;;;;;;;;23.07;27.22;101231.06;5008241;28;96809;-72
2022/05/13 12:16:53;;;;;;;;;;;;;;;22.35;28.33;101225.06;5002487;28;97712;-67
2022/05/13 12:19:31;;;;;;;;;;;;;;;23.28;27.52;101237.44;5001067;28;98992;-67
2022/05/13 12:22:02;;;;;;;;;;;;;;;23.90;27.04;101228.72;5008621;28;98976;-67
2022/05/13 12:24:29;;;;;;;;;;;;;;;23.60;27.21;101240.22;5009105;28;96747;-66
2022/05/13 12:27:07;;;;;;;;;;;;;;;24.32;26.62;101228.81;5005193;28;96906;-66
2022/05/13 12:29:43;;;;;;;;;;;;;;;24.99;25.66;101235.53;5003747;28;99246;-67
2022/05/13 12:32:17;;;;;;;;;;;;;;;24.36;25.98;101241.06;5007861;28;99494;-66
2022/05/13 12:37:42;;;;;;;;;;;;;;;23.19;27.26;101238.16;5007067;28;97301;-66
2022/05/13 12:40:15;;;;;;;;;;;;;;;23.12;27.56;101242.31;5006543;28;99250;-68
2022/05/13 12:42:46;;;;;;;;;;;;;;;23.10;27.61;101238.06;5003988;28;99800;-65
2022/05/13 12:45:13;;;;;;;;;;;;;;;23.37;26.97;101249.28;5000395;28;96763;-67
2022/05/13 12:48:11;;;;;;;;;;;;;;;22.89;27.01;101256.78;5007277;28;97378;-66
2022/05/13 12:50:41;;;;;;;;;;;;;;;22.68;26.55;101256.59;4997245;28;101831;-68
2022/05/13 12:53:22;;;;;;;;;;;;;;;22.00;27.74;101267.25;5005669;28;99265;-67
2022/05/13 12:55:48;;;;;;;;;;;;;;;22.23;27.89;101274.47;5000639;28;96840;-66
2022/05/13 12:58:18;;;;;;;;;;;;;;;22.01;28.47;101275.22;5000534;28;97569;-67
2022/05/13 13:00:46;;;;;;;;;;;;;;;21.84;29.03;101276.44;4999885;28;97930;-68
2022/05/13 13:03:14;;;;;;;;;;;;;;;21.61;29.51;101271.88;5002732;28;97520;-68
2022/05/13 13:05:47;;;;;;;;;;;;;;;20.93;30.33;101277.69;5001825;28;97848;-66
2022/05/13 13:08:14;;;;;;;;;;;;;;;21.38;29.39;101286.16;5000784;28;96831;-68
2022/05/13 13:10:47;;;;;;;;;;;;;;;21.15;30.12;101271.63;5011205;28;99025;-67
2022/05/13 13:13:17;;;;;;;;;;;;;;;20.92;30.71;101284.00;5001536;28;97953;-66
2022/05/13 13:15:47;;;;;;;;;;;;;;;20.11;32.39;101285.13;5004408;28;97373;-66